This is the latest recevied weather packets stored in our database for station/object KG4QXF. If no packets are shown the sender has not sent any weather packets the latest 1 day(s).
| Time | Temp. | Humidity | Pressure | Rain* | Wind** | Luminosity | Snow |
|---|---|---|---|---|---|---|---|
| 1778103253 | 24.44° C | 77% | 1016.5 hPa | 0 mm | - | - | - |
| 1778102950 | 24.44° C | 77% | 1016.4 hPa | 0 mm | - | - | - |
| 1778102037 | 25° C | 76% | 1016.4 hPa | 0 mm | - | - | - |
| 1778101431 | 25° C | 76% | 1016.4 hPa | 0 mm | - | - | - |
| 1778100824 | 25.56° C | 74% | 1016.5 hPa | 0 mm | - | - | - |
| 1778099916 | 25.56° C | 73% | 1016.3 hPa | 0 mm | - | - | - |
| 1778099007 | 26.11° C | 72% | 1016.7 hPa | 0 mm | - | - | - |
| 1778098703 | 26.11° C | 71% | 1016.9 hPa | 0 mm | - | - | - |
| 1778098401 | 26.11° C | 71% | 1016.6 hPa | 0 mm | - | - | - |
| 1778097793 | 25.56° C | 73% | 1016.8 hPa | 0 mm | - | - | - |
| 1778097187 | 26.11° C | 72% | 1016.9 hPa | 0 mm | - | - | - |
| 1778096884 | 25.56° C | 72% | 1017.1 hPa | 0 mm | - | - | - |
| 1778096580 | 25.56° C | 73% | 1016.8 hPa | 0 mm | - | - | - |
| 1778095368 | 27.22° C | 68% | 1017.1 hPa | 0 mm | - | - | - |
| 1778094761 | 27.22° C | 69% | 1017.3 hPa | 0 mm | - | - | - |
| 1778093852 | 26.67° C | 69% | 1017.7 hPa | 0 mm | - | - | - |
| 1778092943 | 26.67° C | 71% | 1017.9 hPa | 0 mm | - | - | - |
| 1778090822 | 26.67° C | 70% | 1018.4 hPa | 0 mm | - | - | - |
| 1778090214 | 26.67° C | 69% | 1018.2 hPa | 0 mm | - | - | - |
| 1778089911 | 26.11° C | 71% | 1018.4 hPa | 0 mm | - | - | - |
| 1778089305 | 26.67° C | 70% | 1018.6 hPa | 0 mm | - | - | - |
| 1778089004 | 26.11° C | 72% | 1018.5 hPa | 0 mm | - | - | - |
| 1778088700 | 26.11° C | 71% | 1018.7 hPa | 0 mm | - | - | - |
| 1778087791 | 26.67° C | 69% | 1018.6 hPa | 0 mm | - | - | - |
| 1778086581 | 27.78° C | 65% | 1018.8 hPa | 0 mm | - | - | - |
* Rain latest hour (hover to see other rain measurements)
** Current wind speed in m/s (hover to see current wind gust speed)